Time;durP1;ratioP1;P1;durP2;ratioP2;P2;SDS_P1;SDS_P2;PMS_P1;PMS_P2;Temp;Humidity;BMP_temperature;BMP_pressure;BME280_temperature;BME280_humidity;BME280_pressure;Samples;Min_cycle;Max_cycle;Signal;HPM_P1;HPM_P2
2022/07/22 00:00:44;;;;;;;7.40;6.50;;;;;;;18.48;98.65;100476.75;4968776;28;20245;-68
2022/07/22 00:03:10;;;;;;;8.13;6.53;;;;;;;18.55;98.51;100493.50;4982792;28;20571;-68
2022/07/22 00:05:35;;;;;;;7.57;6.27;;;;;;;18.47;98.48;100488.09;4974196;28;20215;-68
2022/07/22 00:08:01;;;;;;;6.43;5.83;;;;;;;18.37;99.62;100484.63;4971253;28;20256;-68
2022/07/22 00:10:26;;;;;;;7.67;6.23;;;;;;;18.41;99.76;100480.78;4965971;28;20239;-68
2022/07/22 00:12:51;;;;;;;9.83;6.83;;;;;;;18.32;100.00;100478.94;4985323;28;20204;-68
2022/07/22 00:15:17;;;;;;;7.73;6.77;;;;;;;18.44;100.00;100483.13;4972067;28;20287;-68
2022/07/22 00:17:42;;;;;;;7.80;7.00;;;;;;;18.50;99.56;100485.22;4971872;28;20242;-68
2022/07/22 00:20:08;;;;;;;11.23;7.20;;;;;;;18.48;100.00;100489.78;4963985;28;20643;-69
2022/07/22 00:22:33;;;;;;;9.17;7.07;;;;;;;18.48;100.00;100486.31;4987753;28;20190;-68
2022/07/22 00:24:59;;;;;;;7.80;6.60;;;;;;;18.45;100.00;100482.19;4973555;28;20689;-68
2022/07/22 00:27:24;;;;;;;7.33;6.43;;;;;;;18.41;100.00;100486.00;4972084;28;20229;-68
2022/07/22 00:29:49;;;;;;;7.90;7.10;;;;;;;18.34;100.00;100477.84;4972702;28;20650;-68
2022/07/22 00:32:15;;;;;;;9.03;7.13;;;;;;;18.30;100.00;100476.44;4978093;28;20250;-68
2022/07/22 00:34:40;;;;;;;9.70;7.50;;;;;;;18.26;100.00;100475.06;4973317;28;20192;-68
2022/07/22 00:37:06;;;;;;;9.30;6.70;;;;;;;18.33;100.00;100470.16;4972790;28;20203;-68
2022/07/22 00:39:32;;;;;;;7.47;6.60;;;;;;;18.26;100.00;100471.59;4987605;28;20223;-68
2022/07/22 00:41:58;;;;;;;7.63;6.50;;;;;;;18.25;100.00;100476.00;4964194;28;20231;-69
2022/07/22 00:44:24;;;;;;;8.77;6.70;;;;;;;18.25;100.00;100476.00;4968730;28;20180;-68
2022/07/22 00:46:49;;;;;;;11.30;6.80;;;;;;;18.23;100.00;100475.28;4967747;28;20607;-68
2022/07/22 00:49:14;;;;;;;8.23;7.30;;;;;;;18.15;100.00;100480.31;4972597;28;20654;-68
2022/07/22 00:51:41;;;;;;;9.40;6.93;;;;;;;18.08;100.00;100468.72;4975507;28;20223;-68
2022/07/22 00:54:07;;;;;;;8.50;7.00;;;;;;;18.03;100.00;100472.50;4976157;28;20247;-68
2022/07/22 00:56:32;;;;;;;8.23;6.53;;;;;;;18.03;100.00;100477.72;4973553;28;20263;-68
2022/07/22 00:59:00;;;;;;;7.77;7.07;;;;;;;17.95;100.00;100477.53;4972346;28;20196;-68
2022/07/22 01:01:26;;;;;;;6.63;6.03;;;;;;;17.95;100.00;100482.72;4961478;28;20228;-68
2022/07/22 01:03:52;;;;;;;8.27;7.13;;;;;;;17.93;100.00;100481.16;4972180;28;20204;-68
2022/07/22 01:06:17;;;;;;;9.20;6.97;;;;;;;17.91;100.00;100476.06;4968010;28;20644;-68
2022/07/22 01:08:43;;;;;;;9.43;7.27;;;;;;;17.88;100.00;100478.94;4968743;28;20236;-68
2022/07/22 01:11:18;;;;;;;9.57;8.20;;;;;;;17.69;100.00;100469.97;4974757;28;20239;-68
2022/07/22 01:13:44;;;;;;;9.60;7.47;;;;;;;17.77;100.00;100481.56;4981796;28;20217;-67
2022/07/22 01:16:11;;;;;;;8.73;7.57;;;;;;;17.82;100.00;100479.41;4976383;28;20187;-67
2022/07/22 01:18:37;;;;;;;13.00;7.80;;;;;;;17.75;100.00;100477.28;4976329;28;20188;-67
2022/07/22 01:21:03;;;;;;;12.97;8.37;;;;;;;17.75;100.00;100479.91;4974008;28;20261;-68
2022/07/22 01:23:29;;;;;;;11.63;8.67;;;;;;;17.73;100.00;100480.97;4991225;28;20187;-69
2022/07/22 01:25:55;;;;;;;15.87;8.50;;;;;;;17.72;100.00;100479.31;4976535;28;20180;-68
2022/07/22 01:28:22;;;;;;;11.33;8.83;;;;;;;17.74;100.00;100480.03;4976531;28;20200;-68
2022/07/22 01:30:49;;;;;;;10.13;8.10;;;;;;;17.90;100.00;100479.63;4971046;28;20307;-68
2022/07/22 01:33:16;;;;;;;12.13;8.10;;;;;;;17.91;100.00;100474.31;4974945;28;20172;-68
2022/07/22 01:35:42;;;;;;;10.30;8.17;;;;;;;17.83;100.00;100481.88;4990972;28;20651;-68
2022/07/22 01:38:08;;;;;;;10.30;8.33;;;;;;;17.78;100.00;100478.81;4974714;28;20204;-67
2022/07/22 01:40:33;;;;;;;10.83;7.87;;;;;;;17.80;100.00;100474.34;4966819;28;20291;-68
2022/07/22 01:42:58;;;;;;;8.37;7.20;;;;;;;17.77;100.00;100471.16;4986749;28;20184;-68
2022/07/22 01:45:24;;;;;;;11.10;7.27;;;;;;;17.83;100.00;100466.28;4975812;28;20250;-68
2022/07/22 01:47:49;;;;;;;8.53;7.57;;;;;;;17.77;100.00;100477.16;4975465;28;20536;-68
2022/07/22 01:50:15;;;;;;;12.70;8.80;;;;;;;17.64;100.00;100468.66;4965847;28;20176;-68
2022/07/22 01:52:41;;;;;;;10.33;8.27;;;;;;;17.66;100.00;100470.22;4990747;28;20176;-68
2022/07/22 01:55:07;;;;;;;9.57;8.57;;;;;;;17.65;100.00;100473.78;4974224;28;20210;-68
2022/07/22 01:57:32;;;;;;;10.53;8.53;;;;;;;17.54;100.00;100473.78;4975259;28;20631;-69
2022/07/22 01:59:58;;;;;;;9.97;8.70;;;;;;;17.51;100.00;100474.00;4975571;28;20191;-68
2022/07/22 02:02:23;;;;;;;8.87;7.50;;;;;;;17.58;100.00;100481.22;4980474;28;20286;-68
2022/07/22 02:04:49;;;;;;;9.50;8.00;;;;;;;17.73;100.00;100479.19;4973975;28;20302;-68
2022/07/22 02:07:14;;;;;;;11.77;7.87;;;;;;;17.75;100.00;100482.50;4975481;28;20199;-68
2022/07/22 02:09:39;;;;;;;11.30;7.93;;;;;;;17.89;100.00;100478.78;4975804;28;20286;-68
2022/07/22 02:12:05;;;;;;;9.53;8.17;;;;;;;17.91;100.00;100474.31;4980587;28;20632;-68
2022/07/22 02:14:30;;;;;;;9.87;8.10;;;;;;;17.95;100.00;100485.34;4975550;28;20199;-68
2022/07/22 02:16:56;;;;;;;13.43;8.33;;;;;;;17.96;100.00;100484.38;4975223;28;20238;-68
2022/07/22 02:19:21;;;;;;;8.67;7.77;;;;;;;17.93;100.00;100478.56;4973484;28;20200;-68
2022/07/22 02:21:46;;;;;;;8.27;7.47;;;;;;;17.86;100.00;100483.41;4978491;28;20219;-68
2022/07/22 02:24:12;;;;;;;9.47;7.33;;;;;;;17.83;100.00;100481.88;4977506;28;20184;-68
2022/07/22 02:26:38;;;;;;;9.87;8.27;;;;;;;17.67;100.00;100482.25;4990174;28;20554;-68
2022/07/22 02:29:03;;;;;;;11.83;9.00;;;;;;;17.43;100.00;100488.44;4975045;28;20248;-68
2022/07/22 02:31:28;;;;;;;9.53;8.23;;;;;;;17.42;100.00;100480.75;4967397;28;20596;-68
2022/07/22 02:33:54;;;;;;;11.77;8.50;;;;;;;17.61;100.00;100480.13;4979411;28;20187;-68
2022/07/22 02:36:19;;;;;;;10.67;8.50;;;;;;;17.76;100.00;100485.91;4974803;28;20211;-68
2022/07/22 02:38:44;;;;;;;9.37;8.23;;;;;;;17.91;100.00;100482.13;4974973;28;20208;-68
2022/07/22 02:41:10;;;;;;;9.37;8.37;;;;;;;18.01;100.00;100484.00;4972965;28;20246;-68
2022/07/22 02:43:35;;;;;;;10.50;8.37;;;;;;;17.88;100.00;100482.34;4981657;28;20187;-68
2022/07/22 02:46:01;;;;;;;11.93;9.00;;;;;;;17.94;100.00;100481.06;4974663;28;20535;-68
2022/07/22 02:48:26;;;;;;;12.73;8.00;;;;;;;18.01;100.00;100481.41;4983848;28;20210;-68
2022/07/22 02:50:52;;;;;;;8.17;7.33;;;;;;;18.04;100.00;100487.19;4968940;28;20234;-68
2022/07/22 02:53:17;;;;;;;11.00;8.67;;;;;;;17.97;100.00;100490.41;4983643;28;20194;-68
2022/07/22 02:55:42;;;;;;;9.90;8.43;;;;;;;18.15;100.00;100491.53;4974695;28;20204;-68
2022/07/22 02:58:09;;;;;;;8.90;7.53;;;;;;;18.26;100.00;100490.69;4974060;28;20208;-68
2022/07/22 03:00:37;;;;;;;9.40;7.80;;;;;;;18.11;100.00;100491.91;4958425;28;20235;-69
2022/07/22 03:03:03;;;;;;;9.50;8.10;;;;;;;18.15;100.00;100490.72;4972850;28;20188;-68
2022/07/22 03:05:28;;;;;;;9.73;8.17;;;;;;;18.08;100.00;100492.97;4973036;28;20239;-68
2022/07/22 03:07:53;;;;;;;9.40;8.50;;;;;;;18.18;100.00;100485.25;4973986;28;20232;-67
2022/07/22 03:10:19;;;;;;;8.73;7.23;;;;;;;18.13;100.00;100495.22;4962363;28;20181;-67
2022/07/22 03:12:44;;;;;;;8.73;7.87;;;;;;;18.03;100.00;100498.53;4976864;28;20195;-67
2022/07/22 03:15:10;;;;;;;10.93;7.97;;;;;;;18.02;100.00;100491.72;4963558;28;20179;-67
2022/07/22 03:17:37;;;;;;;9.37;7.80;;;;;;;18.03;100.00;100495.13;4987821;28;20331;-67
2022/07/22 03:20:04;;;;;;;10.43;7.73;;;;;;;18.09;100.00;100494.63;4984580;28;20274;-67
2022/07/22 03:22:29;;;;;;;8.10;6.90;;;;;;;18.04;100.00;100492.38;4985321;28;20730;-67
2022/07/22 03:24:55;;;;;;;11.53;8.17;;;;;;;18.01;100.00;100492.66;4977696;28;20208;-67
2022/07/22 03:27:20;;;;;;;8.90;7.97;;;;;;;17.79;100.00;100485.69;4976056;28;20184;-67
2022/07/22 03:29:46;;;;;;;9.33;8.30;;;;;;;17.61;100.00;100487.94;4973284;28;20188;-67
2022/07/22 03:32:11;;;;;;;11.00;8.57;;;;;;;17.69;100.00;100492.56;4959436;28;20226;-67
2022/07/22 03:34:36;;;;;;;8.77;7.70;;;;;;;17.74;100.00;100486.03;4974155;28;20247;-67
2022/07/22 03:37:02;;;;;;;9.93;8.23;;;;;;;17.58;100.00;100503.81;4973733;28;20204;-67
2022/07/22 03:39:27;;;;;;;9.00;8.10;;;;;;;17.54;100.00;100497.19;4971830;28;20617;-67
2022/07/22 03:41:52;;;;;;;10.63;7.90;;;;;;;17.48;100.00;100502.88;4977440;28;20231;-67
2022/07/22 03:44:18;;;;;;;11.37;8.83;;;;;;;17.43;100.00;100498.03;4974500;28;20192;-67
2022/07/22 03:46:43;;;;;;;9.57;8.67;;;;;;;17.46;100.00;100496.97;4973433;28;20190;-67
2022/07/22 03:49:08;;;;;;;9.50;8.20;;;;;;;17.46;100.00;100500.38;4973075;28;20196;-67
2022/07/22 03:51:34;;;;;;;11.53;8.90;;;;;;;17.40;100.00;100493.03;4965543;28;20607;-67
2022/07/22 03:53:59;;;;;;;9.27;8.37;;;;;;;17.33;100.00;100499.66;4977235;28;20188;-67
2022/07/22 03:56:24;;;;;;;12.20;9.13;;;;;;;17.33;100.00;100495.31;4972379;28;20227;-67
2022/07/22 03:58:49;;;;;;;9.87;8.87;;;;;;;17.23;100.00;100497.78;4972299;28;20611;-68
2022/07/22 04:01:15;;;;;;;10.53;8.97;;;;;;;17.33;100.00;100492.69;4964899;28;20255;-68
2022/07/22 04:03:40;;;;;;;11.43;9.20;;;;;;;17.32;100.00;100496.25;4988387;28;20223;-68
2022/07/22 04:06:06;;;;;;;9.97;8.97;;;;;;;17.19;100.00;100487.72;4971690;28;20562;-68
2022/07/22 04:08:31;;;;;;;14.93;9.67;;;;;;;17.22;100.00;100482.31;4972860;28;20300;-68
2022/07/22 04:10:57;;;;;;;9.60;8.60;;;;;;;17.22;100.00;100475.31;4961398;28;20623;-68
2022/07/22 04:13:22;;;;;;;9.47;8.47;;;;;;;17.21;100.00;100471.06;4976394;28;20184;-68
2022/07/22 04:15:47;;;;;;;10.50;8.63;;;;;;;17.29;100.00;100470.50;4973456;28;20186;-68
2022/07/22 04:18:13;;;;;;;12.83;9.90;;;;;;;17.33;100.00;100473.66;4973234;28;20627;-68
2022/07/22 04:20:38;;;;;;;9.83;8.83;;;;;;;17.34;100.00;100472.72;4967964;28;20230;-68
2022/07/22 04:23:03;;;;;;;10.57;8.77;;;;;;;17.46;100.00;100471.75;4972204;28;20191;-68
2022/07/22 04:25:29;;;;;;;9.90;8.80;;;;;;;17.39;100.00;100476.63;4971810;28;20187;-68
2022/07/22 04:27:54;;;;;;;10.70;8.33;;;;;;;17.48;100.00;100474.28;4971896;28;20271;-68
2022/07/22 04:30:20;;;;;;;11.67;8.20;;;;;;;17.54;100.00;100473.78;4965290;28;20270;-68
2022/07/22 04:32:45;;;;;;;9.57;8.53;;;;;;;17.70;100.00;100470.78;4971859;28;20176;-68
2022/07/22 04:35:10;;;;;;;10.27;8.27;;;;;;;17.81;100.00;100467.34;4973625;28;20663;-68
2022/07/22 04:37:35;;;;;;;10.20;8.13;;;;;;;17.81;100.00;100467.34;4973424;28;20329;-68
2022/07/22 04:40:01;;;;;;;9.33;7.37;;;;;;;17.75;100.00;100460.88;4973306;28;20558;-68
2022/07/22 04:42:26;;;;;;;9.30;7.30;;;;;;;17.85;100.00;100458.34;4980704;28;20282;-68
2022/07/22 04:44:52;;;;;;;11.30;7.90;;;;;;;17.88;100.00;100452.91;4992020;28;20180;-68
2022/07/22 04:47:17;;;;;;;8.63;7.83;;;;;;;18.03;100.00;100459.50;4976916;28;20191;-68
2022/07/22 04:49:42;;;;;;;7.80;7.00;;;;;;;17.95;100.00;100461.91;4976518;28;20180;-68
2022/07/22 04:52:08;;;;;;;8.33;7.20;;;;;;;17.92;100.00;100464.72;4984016;28;20238;-68
2022/07/22 04:54:35;;;;;;;13.20;10.87;;;;;;;18.00;100.00;100464.16;4976854;28;20176;-68
2022/07/22 04:57:00;;;;;;;8.20;7.40;;;;;;;18.05;100.00;100467.22;4976849;28;20207;-68
2022/07/22 04:59:25;;;;;;;9.00;8.07;;;;;;;18.09;99.39;100471.22;4976097;28;20180;-68
2022/07/22 05:01:51;;;;;;;12.37;7.83;;;;;;;18.04;97.92;100470.75;4968122;28;20223;-68
2022/07/22 05:04:16;;;;;;;10.10;9.10;;;;;;;17.96;98.28;100476.59;4975220;28;20220;-68
2022/07/22 05:06:41;;;;;;;9.83;8.40;;;;;;;18.22;96.99;100477.09;4975005;28;20271;-68
2022/07/22 05:09:07;;;;;;;9.53;8.07;;;;;;;18.21;94.23;100472.81;4974979;28;20285;-68
2022/07/22 05:11:32;;;;;;;8.97;8.07;;;;;;;18.27;93.82;100474.13;4964471;28;20587;-68
2022/07/22 05:13:57;;;;;;;10.07;8.37;;;;;;;18.42;93.12;100466.81;4974434;28;20619;-68
2022/07/22 05:16:23;;;;;;;8.10;7.37;;;;;;;18.40;92.76;100481.75;4976107;28;20212;-68
2022/07/22 05:18:48;;;;;;;8.97;7.80;;;;;;;18.52;92.64;100480.75;4974945;28;20180;-68
2022/07/22 05:21:13;;;;;;;11.23;8.27;;;;;;;18.70;90.74;100478.41;4975301;28;20271;-68
2022/07/22 05:23:39;;;;;;;8.43;7.63;;;;;;;18.79;90.78;100470.75;4991173;28;20267;-68
2022/07/22 05:26:05;;;;;;;8.97;8.03;;;;;;;18.82;89.74;100480.94;4976058;28;20270;-68
2022/07/22 05:28:30;;;;;;;10.00;8.00;;;;;;;18.84;89.73;100477.25;4975927;28;20207;-69
2022/07/22 05:30:55;;;;;;;8.80;7.93;;;;;;;18.79;87.87;100473.38;4967165;28;20230;-68
2022/07/22 05:33:20;;;;;;;8.97;7.40;;;;;;;18.79;88.48;100475.97;4975002;28;20204;-68
2022/07/22 05:35:46;;;;;;;11.27;8.57;;;;;;;18.74;89.06;100465.91;4975982;28;20184;-68
2022/07/22 05:38:11;;;;;;;8.47;7.60;;;;;;;18.93;88.41;100469.63;4974643;28;20210;-68
2022/07/22 05:40:36;;;;;;;8.17;7.43;;;;;;;19.17;86.90;100464.13;4970175;28;20229;-68
2022/07/22 05:43:01;;;;;;;10.13;8.07;;;;;;;19.04;87.23;100466.97;4990831;28;20238;-68
2022/07/22 05:45:27;;;;;;;11.80;9.33;;;;;;;18.79;87.86;100468.16;4975716;28;20192;-68
2022/07/22 05:47:52;;;;;;;10.70;8.17;;;;;;;18.98;86.78;100464.88;4990598;28;20174;-68
2022/07/22 05:50:18;;;;;;;10.37;9.27;;;;;;;19.16;85.83;100467.69;4967662;28;20526;-68
2022/07/22 05:52:43;;;;;;;9.93;8.93;;;;;;;18.92;85.87;100454.97;4987770;28;20184;-68
2022/07/22 05:55:09;;;;;;;10.67;9.43;;;;;;;18.99;86.26;100456.06;4975393;28;20191;-68
2022/07/22 05:57:35;;;;;;;11.20;10.03;;;;;;;18.98;86.20;100450.06;4975830;28;20200;-68
2022/07/22 06:00:01;;;;;;;13.07;9.33;;;;;;;19.15;86.41;100453.84;4983568;28;20185;-68
2022/07/22 06:02:26;;;;;;;9.67;8.67;;;;;;;19.20;84.04;100461.25;4973367;28;20228;-68
2022/07/22 06:04:54;;;;;;;11.77;9.30;;;;;;;19.22;84.76;100467.16;4975089;28;20262;-69
2022/07/22 06:07:20;;;;;;;9.90;8.90;;;;;;;19.23;83.79;100463.59;4975309;28;20279;-68
2022/07/22 06:09:45;;;;;;;10.03;8.83;;;;;;;19.52;84.06;100465.47;4975254;28;20255;-68
2022/07/22 06:12:10;;;;;;;11.00;8.90;;;;;;;19.59;82.25;100465.78;4966768;28;20222;-68
2022/07/22 06:14:38;;;;;;;10.77;9.40;;;;;;;19.88;78.94;100465.84;4973986;28;20180;-68
2022/07/22 06:17:04;;;;;;;10.90;9.83;;;;;;;19.96;78.02;100460.78;4975214;28;20243;-68
2022/07/22 06:19:29;;;;;;;13.13;10.67;;;;;;;20.21;76.16;100465.63;4975364;28;20196;-68
2022/07/22 06:21:56;;;;;;;10.70;9.60;;;;;;;20.18;75.45;100458.91;4979296;28;20231;-69
2022/07/22 06:24:21;;;;;;;11.37;10.27;;;;;;;20.56;74.20;100470.25;4976018;28;20288;-69
2022/07/22 06:26:46;;;;;;;13.43;10.67;;;;;;;20.35;73.27;100465.19;4990188;28;20191;-68
2022/07/22 06:29:12;;;;;;;12.57;10.80;;;;;;;20.68;71.77;100467.47;4973667;28;20191;-68
2022/07/22 06:31:37;;;;;;;12.27;10.03;;;;;;;20.98;70.59;100468.28;4967146;28;20718;-68
2022/07/22 06:34:05;;;;;;;12.40;10.60;;;;;;;21.45;69.12;100471.66;4977828;28;20536;-68
2022/07/22 06:36:31;;;;;;;11.47;9.13;;;;;;;21.54;64.39;100477.81;4989735;28;20616;-68
2022/07/22 06:38:57;;;;;;;9.73;8.73;;;;;;;21.64;63.49;100466.50;4973757;28;20172;-68
2022/07/22 06:41:22;;;;;;;9.83;8.87;;;;;;;21.56;64.62;100469.88;4967178;28;20223;-68
2022/07/22 06:43:47;;;;;;;10.20;9.20;;;;;;;22.31;60.82;100463.53;4979516;28;20253;-68
2022/07/22 06:46:13;;;;;;;8.93;7.90;;;;;;;23.62;55.27;100466.09;4974453;28;20211;-68
2022/07/22 06:48:38;;;;;;;14.43;9.40;;;;;;;24.48;51.72;100469.28;4973003;28;20183;-68
2022/07/22 06:51:04;;;;;;;9.27;8.17;;;;;;;24.69;50.09;100461.91;4972381;28;20219;-68
2022/07/22 06:53:29;;;;;;;8.17;7.37;;;;;;;25.06;47.44;100466.56;4989769;28;20557;-68
2022/07/22 06:55:55;;;;;;;8.60;7.80;;;;;;;25.44;46.96;100466.78;4974757;28;20226;-68
2022/07/22 06:58:20;;;;;;;9.88;7.68;;;;;;;25.05;47.09;100472.00;4972973;28;20255;-68
2022/07/22 07:00:45;;;;;;;9.05;7.93;;;;;;;24.54;48.42;100473.06;4959810;28;20234;-68
2022/07/22 07:03:11;;;;;;;8.10;7.27;;;;;;;25.30;47.61;100470.09;4989297;28;20263;-68
2022/07/22 07:05:36;;;;;;;8.52;7.47;;;;;;;25.96;45.35;100463.66;4974372;28;20651;-68
2022/07/22 07:08:02;;;;;;;8.68;7.70;;;;;;;26.58;42.62;100466.13;4974469;28;20228;-68
2022/07/22 07:10:27;;;;;;;7.80;7.00;;;;;;;26.86;41.90;100454.97;4962127;28;20224;-68
2022/07/22 07:12:57;;;;;;;9.10;6.90;;;;;;;27.53;40.58;100447.88;4964025;28;20188;-68
2022/07/22 07:15:23;;;;;;;6.72;6.10;;;;;;;28.05;38.60;100452.28;4965383;28;20343;-68
2022/07/22 07:17:49;;;;;;;6.60;6.05;;;;;;;28.01;38.20;100455.25;4986390;28;20207;-66
2022/07/22 07:20:14;;;;;;;6.25;5.65;;;;;;;26.18;43.51;100441.75;4964802;28;20199;-66
2022/07/22 07:22:39;;;;;;;9.85;6.05;;;;;;;26.55;42.88;100450.66;4972659;28;20658;-66
2022/07/22 07:25:07;;;;;;;7.07;6.38;;;;;;;27.35;42.39;100450.91;4974059;28;20176;-68
2022/07/22 07:27:33;;;;;;;5.78;5.18;;;;;;;29.05;38.14;100447.66;4973654;28;20207;-67
2022/07/22 07:29:58;;;;;;;5.90;5.40;;;;;;;31.10;34.42;100440.19;4973309;28;20576;-67
2022/07/22 07:32:23;;;;;;;6.93;6.22;;;;;;;29.92;35.60;100447.09;4958847;28;20226;-66
2022/07/22 07:34:49;;;;;;;6.95;5.03;;;;;;;31.01;34.48;100447.56;4973801;28;20199;-66
2022/07/22 07:37:15;;;;;;;6.45;5.05;;;;;;;31.43;33.16;100452.47;4973583;28;20226;-66
2022/07/22 07:39:40;;;;;;;7.20;5.15;;;;;;;30.83;33.82;100437.59;4973857;28;20191;-66
2022/07/22 07:42:06;;;;;;;6.03;5.22;;;;;;;32.83;30.82;100442.56;4978391;28;20231;-67
2022/07/22 07:44:31;;;;;;;5.70;4.57;;;;;;;33.91;29.02;100446.41;4973590;28;20196;-69
2022/07/22 07:46:57;;;;;;;5.53;4.88;;;;;;;32.02;30.81;100447.78;4973560;28;20210;-67
2022/07/22 07:49:22;;;;;;;5.95;5.32;;;;;;;32.65;30.12;100440.66;4973186;28;20266;-67
2022/07/22 07:51:47;;;;;;;7.00;4.80;;;;;;;29.84;35.28;100447.25;4976729;28;20314;-67
2022/07/22 07:54:13;;;;;;;6.00;4.75;;;;;;;31.70;31.96;100441.72;4974852;28;20639;-67
2022/07/22 07:56:38;;;;;;;5.03;4.45;;;;;;;30.11;34.42;100437.50;4973355;28;20282;-67
2022/07/22 07:59:03;;;;;;;4.78;4.30;;;;;;;31.14;32.46;100438.72;4973196;28;20191;-67
2022/07/22 08:01:29;;;;;;;8.63;3.97;;;;;;;31.67;31.83;100440.28;4974069;28;20413;-68
2022/07/22 08:03:54;;;;;;;4.38;3.97;;;;;;;32.80;29.70;100444.84;4987780;28;20200;-67
2022/07/22 08:06:19;;;;;;;6.30;4.47;;;;;;;33.39;28.79;100449.66;4972676;28;20184;-67
2022/07/22 08:08:45;;;;;;;5.63;3.92;;;;;;;32.92;30.19;100442.22;4987282;28;20688;-67
2022/07/22 08:11:10;;;;;;;5.00;4.45;;;;;;;28.53;37.09;100443.66;4961283;28;20705;-66
2022/07/22 08:13:35;;;;;;;5.32;4.85;;;;;;;28.02;37.97;100440.19;4968235;28;20188;-67
2022/07/22 08:16:01;;;;;;;5.78;5.28;;;;;;;29.52;36.46;100437.25;4972692;28;20211;-66
2022/07/22 08:18:28;;;;;;;7.38;5.45;;;;;;;27.85;39.18;100437.03;4987714;28;20210;-67
2022/07/22 08:20:53;;;;;;;5.20;4.75;;;;;;;30.14;35.30;100429.13;4969303;28;20320;-66
2022/07/22 08:23:19;;;;;;;5.32;4.82;;;;;;;31.50;33.13;100433.84;4981180;28;20279;-66
2022/07/22 08:25:44;;;;;;;7.75;5.65;;;;;;;32.22;31.83;100428.22;4972562;28;20191;-67
2022/07/22 08:28:09;;;;;;;6.28;5.68;;;;;;;33.26;30.54;100437.28;4972480;28;20192;-67
2022/07/22 08:30:35;;;;;;;6.68;6.07;;;;;;;31.76;32.45;100421.44;4966936;28;20616;-67
2022/07/22 08:33:01;;;;;;;5.60;5.20;;;;;;;31.34;33.37;100425.34;4975761;28;20188;-67
2022/07/22 08:35:26;;;;;;;7.40;6.53;;;;;;;30.19;35.35;100421.41;4967475;28;20549;-67
2022/07/22 08:37:52;;;;;;;7.80;6.60;;;;;;;29.92;36.09;100413.44;4972560;28;20188;-68
2022/07/22 08:40:17;;;;;;;7.95;6.75;;;;;;;28.78;37.89;100423.69;4978193;28;20186;-67
2022/07/22 08:42:44;;;;;;;9.93;6.88;;;;;;;28.91;37.98;100417.63;4985418;28;20191;-67
2022/07/22 08:45:10;;;;;;;9.75;6.95;;;;;;;30.29;35.30;100406.88;4972672;28;20196;-66
2022/07/22 08:47:36;;;;;;;6.60;5.88;;;;;;;30.38;34.76;100413.63;4972675;28;20194;-67
2022/07/22 08:50:02;;;;;;;7.65;5.88;;;;;;;31.49;32.72;100413.59;4970513;28;20301;-67
2022/07/22 08:52:28;;;;;;;6.20;5.35;;;;;;;30.91;33.86;100415.28;4985124;28;20696;-67
2022/07/22 08:54:53;;;;;;;6.82;6.18;;;;;;;30.87;33.11;100409.63;4972983;28;20643;-68
2022/07/22 08:57:19;;;;;;;5.80;5.30;;;;;;;31.17;32.82;100408.25;4972828;28;20207;-67
2022/07/22 08:59:56;;;;;;;6.72;6.13;;;;;;;31.81;30.71;100410.94;4972642;28;20184;-68
2022/07/22 09:02:23;;;;;;;6.55;5.88;;;;;;;30.10;34.71;100412.84;4961822;28;20306;-67
2022/07/22 09:04:56;;;;;;;6.95;6.20;;;;;;;30.20;34.85;100412.38;4972914;28;20590;-67
2022/07/22 09:07:30;;;;;;;6.10;5.57;;;;;;;31.02;33.07;100416.47;4972691;28;20196;-67
2022/07/22 09:09:58;;;;;;;6.95;6.10;;;;;;;32.05;32.10;100408.50;4972544;28;20643;-68
2022/07/22 09:12:23;;;;;;;6.53;5.60;;;;;;;32.57;30.83;100406.34;4965029;28;20235;-68
2022/07/22 09:14:52;;;;;;;6.57;5.90;;;;;;;32.26;30.63;100409.97;4972692;28;20188;-67
2022/07/22 09:17:35;;;;;;;6.18;5.35;;;;;;;29.77;34.04;100399.53;4972657;28;20208;-67
2022/07/22 09:20:05;;;;;;;6.28;5.75;;;;;;;29.70;33.91;100404.03;4972570;28;20243;-67
2022/07/22 09:22:42;;;;;;;7.97;5.50;;;;;;;30.77;32.72;100405.78;4961496;28;20220;-67
2022/07/22 09:25:30;;;;;;;6.53;5.10;;;;;;;31.21;31.81;100406.84;4972505;28;20210;-67
2022/07/22 09:28:10;;;;;;;7.95;5.70;;;;;;;33.95;29.02;100399.53;4961563;28;20188;-67
2022/07/22 09:30:48;;;;;;;6.18;5.38;;;;;;;33.83;29.32;100406.72;4969499;28;20257;-67
2022/07/22 09:33:13;;;;;;;6.07;5.57;;;;;;;32.18;32.35;100400.38;4974802;28;20213;-66
2022/07/22 09:35:42;;;;;;;6.68;6.07;;;;;;;32.12;31.69;100404.72;4975879;28;20545;-67
2022/07/22 09:38:09;;;;;;;7.03;6.32;;;;;;;31.36;32.47;100398.56;4990508;28;20618;-66
2022/07/22 09:40:53;;;;;;;6.68;5.88;;;;;;;33.20;30.48;100400.88;4969587;28;20659;-67
2022/07/22 09:43:20;;;;;;;8.77;5.68;;;;;;;34.70;28.23;100392.63;4991122;28;20184;-66
2022/07/22 09:45:53;;;;;;;6.25;5.65;;;;;;;34.96;27.42;100400.34;4974629;28;20211;-67
2022/07/22 09:48:21;;;;;;;6.30;5.70;;;;;;;33.79;28.79;100396.50;4976128;28;20207;-67
2022/07/22 09:50:47;;;;;;;6.15;5.55;;;;;;;32.86;29.09;100392.50;4971289;28;20231;-67
2022/07/22 09:53:14;;;;;;;8.02;5.47;;;;;;;34.41;26.86;100384.56;4985106;28;20192;-67
2022/07/22 09:55:40;;;;;;;6.22;5.28;;;;;;;35.07;26.61;100386.13;4974126;28;20211;-67
2022/07/22 09:58:07;;;;;;;6.03;5.30;;;;;;;35.77;25.86;100386.75;4975348;28;20690;-67
2022/07/22 10:00:37;;;;;;;6.50;5.50;;;;;;;33.90;27.91;100381.59;4969628;28;20341;-67
2022/07/22 10:03:05;;;;;;;5.72;5.05;;;;;;;32.05;30.29;100374.72;4974094;28;20546;-67
2022/07/22 10:05:34;;;;;;;7.85;4.75;;;;;;;33.57;28.11;100369.59;4975740;28;20251;-67
2022/07/22 10:08:00;;;;;;;5.65;5.15;;;;;;;33.91;28.33;100371.72;4975223;28;20267;-67
2022/07/22 10:10:28;;;;;;;6.35;4.93;;;;;;;34.03;27.25;100369.06;4963031;28;20591;-66
2022/07/22 10:12:56;;;;;;;7.22;4.90;;;;;;;34.24;27.27;100365.75;4978306;28;20247;-67
2022/07/22 10:15:23;;;;;;;6.32;4.90;;;;;;;35.44;25.65;100364.31;4975252;28;20180;-67
2022/07/22 10:17:55;;;;;;;5.03;4.40;;;;;;;37.06;24.22;100368.81;4975055;28;20200;-67
2022/07/22 10:20:26;;;;;;;4.70;4.30;;;;;;;37.43;23.17;100368.88;4966248;28;20235;-67
2022/07/22 10:22:54;;;;;;;10.07;5.95;;;;;;;38.02;21.94;100367.13;4973885;28;20180;-67
2022/07/22 10:25:23;;;;;;;5.05;4.63;;;;;;;36.83;22.94;100373.41;4973945;28;20199;-67
2022/07/22 10:28:05;;;;;;;5.25;4.75;;;;;;;36.12;23.80;100356.22;4975308;28;20215;-67
2022/07/22 10:30:33;;;;;;;4.95;4.13;;;;;;;35.81;25.13;100350.44;4968214;28;20239;-67
2022/07/22 10:33:11;;;;;;;5.35;4.43;;;;;;;34.51;25.42;100343.91;4985635;28;20205;-67
2022/07/22 10:35:43;;;;;;;6.80;4.00;;;;;;;36.19;25.53;100348.78;4975020;28;20192;-68
2022/07/22 10:38:10;;;;;;;5.63;3.78;;;;;;;35.03;25.01;100343.03;4974857;28;20211;-68
2022/07/22 10:40:53;;;;;;;5.45;4.45;;;;;;;34.99;24.75;100347.25;4968425;28;20322;-68
2022/07/22 10:43:21;;;;;;;6.05;4.60;;;;;;;34.41;26.70;100335.69;4983067;28;20274;-68
2022/07/22 10:45:49;;;;;;;8.20;4.65;;;;;;;34.61;25.70;100329.13;4974840;28;20196;-67
2022/07/22 10:48:39;;;;;;;4.43;4.13;;;;;;;35.04;25.42;100331.28;4989151;28;20658;-68
2022/07/22 10:51:07;;;;;;;4.88;4.43;;;;;;;34.25;27.00;100324.69;4971454;28;20211;-68
2022/07/22 10:53:42;;;;;;;5.85;4.75;;;;;;;30.58;31.84;100326.81;4981713;28;20184;-67
2022/07/22 10:56:15;;;;;;;7.88;5.10;;;;;;;30.07;34.38;100312.44;4973868;28;20180;-67
2022/07/22 10:58:44;;;;;;;6.10;5.50;;;;;;;29.08;35.57;100300.78;4973787;28;20219;-67
2022/07/22 11:01:12;;;;;;;6.22;5.63;;;;;;;27.97;37.53;100308.63;4962624;28;20239;-67
2022/07/22 11:03:41;;;;;;;7.25;5.28;;;;;;;27.71;38.26;100301.31;4980699;28;20203;-67
2022/07/22 11:06:33;;;;;;;6.63;5.90;;;;;;;27.15;39.22;100300.19;4988644;28;20188;-68
2022/07/22 11:09:01;;;;;;;8.35;5.28;;;;;;;27.51;40.55;100293.22;4975081;28;20230;-67
2022/07/22 11:11:51;;;;;;;6.97;5.75;;;;;;;27.74;38.27;100295.63;4962193;28;20691;-67
2022/07/22 11:14:18;;;;;;;7.15;5.20;;;;;;;27.77;39.39;100294.44;4964405;28;20184;-67
2022/07/22 11:16:45;;;;;;;8.05;5.45;;;;;;;27.84;39.88;100284.72;4965789;28;20250;-68